Sunday, May 27, 2018, 9:53 AM EDT
Back to Local

KPHL, Philadelphia International Airpt

Location: Philadelphia, PA, United States Lat: 39.867
Local Time: 9:53 AM EDT (13:53 GMT) Lon: -75.233
Time Zone: US/Eastern Elev: 19 ft

Show me the last for .
Show Decoded

2018-05-27 09:42 METAR KPHL 271342Z 05009KT 7SM +RA SCT008 BKN014 OVC040 19/18 A2995 RMK AO2
                 RAB20 P0004 T01940183 $ =
2018-05-27 09:33 METAR KPHL 271333Z 05009KT 6SM R09R/5500VP6000FT +RA BR FEW008 BKN014 OVC040
                 19/18 A2995 RMK AO2 RAB20 P0002 T01940183 $ =
2018-05-27 09:23 METAR KPHL 271323Z 05013KT 8SM +RA BKN014 BKN018 OVC040 20/18 A2995 RMK AO2
                 RAB20 P0000 T02000178 $ =
2018-05-27 08:54 METAR KPHL 271254Z 05010KT 10SM BKN012 BKN019 OVC038 20/18 A2993 RMK AO2 SLP136
                 VCSH N-NE T02000183 $ =
2018-05-27 08:43 METAR KPHL 271243Z 02013KT 10SM FEW014 BKN019 BKN036 OVC140 22/19 A2993 RMK AO2
                 LTG DSNT NW CB DSNT N MOV E T02170194 $ =
2018-05-27 08:28 METAR KPHL 271228Z 24005KT 10SM FEW017 SCT025 BKN036 BKN140 BKN250 24/22 A2992
                 RMK AO2 LTG DSNT N CB DSNT N MOV E T02390217 $ =
2018-05-27 07:54 METAR KPHL 271154Z 22004KT 10SM SCT015 BKN021 BKN037 BKN180 BKN260 23/22 A2991
                 RMK AO2 RAB10E41 SLP127 P0000 60000 70085 T02330217 10250 20228 51015 $ =
2018-05-27 06:54 METAR KPHL 271054Z 16004KT 10SM BKN018 BKN026 OVC130 23/21 A2991 RMK AO2 SLP127
                 T02280206 $ =
2018-05-27 06:42 METAR KPHL 271042Z 16003KT 10SM BKN019 BKN026 OVC130 23/21 A2990 RMK AO2 BKN019
                 V SCT T02280206 $ =
2018-05-27 06:11 METAR KPHL 271011Z 21005KT 10SM SCT020 BKN030 BKN140 BKN250 23/21 A2987 RMK AO2
                 LTG DSNT N AND NE FRQ LTGICCC DSNT NE CB DSNT NE MOV NE T02280206 $ =
2018-05-27 06:07 METAR KPHL 271007Z 21005KT 10SM BKN020 BKN030 BKN140 BKN250 23/21 A2987 RMK AO2
                 LTG DSNT N AND NE FRQ LTGICCC DSNT NE CB DSNT NE MOV NE T02280206 $ =
2018-05-27 05:54 METAR KPHL 270954Z 21005KT 10SM FEW020 SCT030 BKN140 BKN250 23/21 A2987 RMK AO2
                 LTG DSNT N AND NE TSB0857E14 SLP113 OCNL LTGIC DSNT NE CB DSNT NE MOV NE
                 T02280206 $ =
2018-05-27 05:16 METAR KPHL 270916Z 22006KT 10SM SCT025 SCT090 BKN140 BKN250 23/21 A2986 RMK AO2
                 LTG DSNT N AND NE TSB0857E14 OCNL LTGIC DSNT NE CB DSNT NE MOV NE T02330206 $ =
2018-05-27 04:58 METAR KPHL 270858Z 20004KT 10SM TS FEW030CB SCT060 SCT090 BKN150 OVC250 23/21
                 A2986 RMK AO2 LTG DSNT NE TSB57 OCNL LTGIC VC NE TS VC NE MOV NE T02280206 $ =
2018-05-27 04:54 METAR KPHL 270854Z 20004KT 10SM FEW032 SCT060 SCT090 BKN150 OVC250 23/21 A2986
                 RMK AO2 LTG DSNT NE RAB0758E07 SLP112 P0000 60000 T02280206 57002 $ =
2018-05-27 03:54 METAR KPHL 270754Z 21006KT 10SM SCT031 BKN060 BKN080 24/21 A2987 RMK AO2 SLP113
                 T02390206 $ =
2018-05-27 02:54 METAR KPHL 270654Z 20006KT 10SM SCT043 BKN100 OVC150 24/21 A2987 RMK AO2 SLP113
                 T02390211 $ =
2018-05-27 01:54 METAR KPHL 270554Z 22005KT 10SM SCT040 BKN110 OVC140 24/22 A2987 RMK AO2 RAE35
                 SLP114 P0000 60000 T02440222 10278 20228 50003 $ =
2018-05-27 00:54 METAR KPHL 270454Z 22009KT 10SM -RA FEW065 SCT110 BKN140 OVC180 25/22 A2988 RMK
                 AO2 RAE0355B23 SLP117 P0000 T02500217 403170206 $ =
2018-05-26 23:54 METAR KPHL 270354Z 19006KT 10SM -RA FEW060 BKN130 BKN160 OVC250 24/21 A2988 RMK
                 AO2 RAB46 SLP116 P0000 T02440211 $ =
2018-05-26 22:54 METAR KPHL 270254Z 18006KT 10SM FEW090 SCT150 BKN180 OVC210 23/22 A2986 RMK AO2
                 SLP111 T02330217 50012 $ =
2018-05-26 21:54 METAR KPHL 270154Z 00000KT 10SM SCT090 OVC200 23/21 A2987 RMK AO2 SLP113
                 T02280211 $ =
2018-05-26 20:54 METAR KPHL 270054Z 11003KT 10SM FEW055 SCT160 OVC240 24/21 A2984 RMK AO2 LTG
                 DSNT NE TSB00E23 SLP105 T02390206 $ =
2018-05-26 20:23 METAR KPHL 270023Z VRB04KT 10SM SCT055 SCT140 BKN240 26/21 A2984 RMK AO2
                 TSB00E23 OCNL LTGIC DSNT NE CB DSNT NE MOV E T02560206 $ =
2018-05-26 20:00 METAR KPHL 270000Z 23006KT 10SM TS SCT055CB SCT100 BKN240 27/21 A2983 RMK AO2
                 LTG DSNT E TSB00 OCNL LTGIC VC NE TS VC NE MOV E T02720206 $ =
2018-05-26 19:54 METAR KPHL 262354Z 22007KT 10SM SCT050 SCT090 OVC200 28/20 A2983 RMK AO2 LTG
                 DSNT E RAB25E30 TSE30 SLP099 CB DSNT N MOV E P0000 60085 T02780200 10317 20228
                 53002 $ =
2018-05-26 19:30 METAR KPHL 262330Z 19005KT 10SM SCT050TCU SCT090 OVC200 25/20 A2982 RMK AO2
                 RAB25E30 TSE30 TCU SE P0000 T02500200 $ =
2018-05-26 18:54 METAR KPHL 262254Z 14007KT 10SM TS FEW017 SCT035CB SCT090 OVC250 26/19 A2981 RMK
                 AO2 PK WND 16027/2206 WSHFT 2202 LTG DSNT NW RAE20 SLP095 OCNL LTGICCG VC SE TS
                 VC SE MOV E CB DSNT NW MOV E P0052 T02560194 $ =
2018-05-26 18:18 METAR KPHL 262218Z 13016G23KT 10SM -TSRA SCT017 BKN036CB BKN060 OVC250 23/19
                 A2981 RMK AO2 PK WND 16027/2206 WSHFT 2202 LTG DSNT W AND NW FRQ LTGICCG OHD TS
                 OHD MOV E P0052 T02280189 $ =
2018-05-26 18:15 METAR KPHL 262215Z 13015G27KT 7SM -TSRA SCT017 BKN036CB OVC060 23/18 A2981 RMK
                 AO2 PK WND 16027/2206 LTG DSNT W AND NW FRQ LTGICCG OHD TS OHD MOV E P0052
                 T02280183 $ =
2018-05-26 18:10 METAR KPHL 262210Z 13012G27KT 110V170 2SM +TSRA SCT022 BKN036CB OVC060 23/19
                 A2981 RMK AO2 PK WND 16027/2206 VIS W 7 FRQ LTGICCG OHD TS OHD MOV E P0052
                 T02330194 $ =
2018-05-26 17:54 METAR KPHL 262154Z 24009G26KT 1SM R09R/2000VP6000FT +TSRA SCT038CB BKN060 OVC090
                 26/20 A2981 RMK AO2 PK WND 30026/2145 RAB20 TSE2055B03E42B47 SLP095 OCNL LTGICCG
                 OHD TS OHD MOV E P0028 T02560200 $ =
2018-05-26 17:50 METAR KPHL 262150Z 29017G26KT 1SM R09R/1800V4000FT +TSRA SCT038CB BKN060 OVC090
                 26/21 A2982 RMK AO2 PK WND 30026/2145 RAB20 TSE2055B03E42B47 OCNL LTGICCG OHD TS
                 OHD MOV E P0013 $ =
2018-05-26 17:47 METAR KPHL 262147Z 30013G26KT 2SM R09R/1800VP6000FT +TSRA FEW044CB BKN060 BKN090
                 BKN250 27/22 A2982 RMK AO2 PK WND 30026/2145 RAB20 TSE2055B03E42B47 PRESRR OCNL
                 LTGICCG OHD TS OHD MOV E P0002 T02720217 $ =
2018-05-26 17:42 METAR KPHL 262142Z 32013KT 3SM R09R/2400VP6000FT RA FEW044TCU BKN060 BKN090
                 BKN250 29/21 A2981 RMK AO2 RAB20 TSE2055B03E42 TCU OHD P0000 T02940211 $ =
2018-05-26 17:03 METAR KPHL 262103Z 26005KT 10SM TS FEW035CB FEW070 SCT110 BKN250 30/21 A2979 RMK
                 AO2 LTG DSNT W AND NW TSE2055B03 OCNL LTGIC VC W-VC NW TS VC W-VC NW MOV E
                 T03000206 $ =
2018-05-26 16:58 METAR KPHL 262058Z 24005KT 10SM VCTS FEW035 FEW060 SCT110 BKN250 30/21 A2979 RMK
                 AO2 LTG DSNT W AND NW TSE55 CB DSNT NW MOV E T03000206 $ =
2018-05-26 16:54 METAR KPHL 262054Z 23006KT 10SM FEW035 FEW060 SCT110 BKN250 30/21 A2979 RMK AO2
                 LTG DSNT NW RAE11 SLP088 P0002 60005 T03000206 56009 $ =
2018-05-26 16:04 METAR KPHL 262004Z 27003KT 10SM -RA SCT036TCU SCT090 BKN250 28/22 A2979 RMK AO2
                 TCU E P0002 T02830217 $ =
2018-05-26 15:54 METAR KPHL 261954Z 27008G27KT 5SM +RA SCT045TCU SCT100 BKN250 28/21 A2980 RMK
                 AO2 PK WND 28027/1946 RAB36 TSB20E43 SLP090 TCU OHD P0003 T02830206 $ =
2018-05-26 15:44 METAR KPHL 261944Z 27013KT 5SM -RA SCT045TCU SCT100 BKN250 31/21 A2980 RMK AO2
                 RAB36 TSB20E43 TCU OHD P0000 T03060206 $ =
2018-05-26 15:20 METAR KPHL 261920Z 24009KT 10SM TS SCT045CB BKN080 BKN250 32/19 A2979 RMK AO2
                 LTG DSNT W TSB20 OCNL LTGIC VC W TS VC W MOV E T03170194 $ =
2018-05-26 14:54 METAR KPHL 261854Z 21011KT 10SM SCT045 SCT080 SCT150 BKN250 32/20 A2980 RMK AO2
                 SLP090 T03170200 $ =
2018-05-26 13:54 METAR KPHL 261754Z 23009KT 10SM R09R/4500VP6000FT FEW080 SCT150 BKN250 31/21
                 A2982 RMK AO2 SLP097 T03060206 10311 20233 58013 $ =
2018-05-26 12:54 METAR KPHL 261654Z 24009KT 10SM FEW080 SCT150 BKN250 29/21 A2983 RMK AO2 SLP102
                 T02940206 $ =
2018-05-26 11:54 METAR KPHL 261554Z 24005KT 10SM FEW080 SCT150 SCT250 28/20 A2984 RMK AO2 SLP105
                 T02780200 $ =
2018-05-26 10:54 METAR KPHL 261454Z 23008KT 10SM BKN080 BKN150 26/19 A2986 RMK AO2 SLP110
                 T02610194 58000 $ =
2018-05-26 09:54 METAR KPHL 261354Z 21006KT 10SM FEW075 BKN110 BKN150 24/19 A2987 RMK AO2 SLP113
                 T02440194 $ =

Support USWX by starting your Amazon purchase here.